Time;durP1;ratioP1;P1;durP2;ratioP2;P2;SDS_P1;SDS_P2;PMS_P1;PMS_P2;Temp;Humidity;BMP_temperature;BMP_pressure;BME280_temperature;BME280_humidity;BME280_pressure;Samples;Min_cycle;Max_cycle;Signal;HPM_P1;HPM_P2
2022/01/09 00:00:21;;;;;;;64.87;28.27;;;;;;;0.33;70.08;98216.98;1781917;80;20991;-49
2022/01/09 00:02:47;;;;;;;68.12;29.12;;;;;;;0.29;70.13;98208.91;1781801;80;20952;-47
2022/01/09 00:05:14;;;;;;;70.00;28.83;;;;;;;0.23;70.70;98207.81;1781326;80;20984;-48
2022/01/09 00:07:39;;;;;;;63.70;28.12;;;;;;;0.20;71.00;98202.30;1781912;80;21443;-47
2022/01/09 00:10:07;;;;;;;63.80;28.15;;;;;;;0.17;70.96;98201.09;1781912;80;20979;-45
2022/01/09 00:12:34;;;;;;;66.12;29.37;;;;;;;0.09;71.10;98206.50;1781860;80;20971;-45
2022/01/09 00:15:00;;;;;;;56.10;26.75;;;;;;;0.07;71.05;98206.97;1781916;80;21027;-46
2022/01/09 00:17:25;;;;;;;63.15;27.70;;;;;;;0.01;71.00;98206.33;1781831;80;20984;-47
2022/01/09 00:19:51;;;;;;;54.83;25.43;;;;;;;-0.01;71.24;98199.91;1781728;80;20967;-45
2022/01/09 00:22:22;;;;;;;62.98;28.30;;;;;;;-0.17;71.46;98207.27;1781841;80;21039;-43
2022/01/09 00:24:45;;;;;;;65.60;27.25;;;;;;;-0.09;71.34;98209.19;1781315;80;20975;-44
2022/01/09 00:27:11;;;;;;;63.85;29.70;;;;;;;-0.12;71.60;98204.10;1781837;80;20987;-48
2022/01/09 00:29:36;;;;;;;64.17;28.83;;;;;;;-0.14;71.81;98203.31;1781919;80;20987;-47
2022/01/09 00:32:03;;;;;;;70.55;28.60;;;;;;;-0.15;72.05;98201.59;1781878;80;21088;-46
2022/01/09 00:34:28;;;;;;;65.10;28.02;;;;;;;-0.16;71.92;98201.22;1781851;80;21556;-45
2022/01/09 00:36:54;;;;;;;64.80;28.05;;;;;;;-0.18;72.03;98194.38;1781772;80;21026;-44
2022/01/09 00:39:21;;;;;;;61.18;27.87;;;;;;;-0.23;72.23;98191.95;1781914;80;20987;-43
2022/01/09 00:41:47;;;;;;;60.10;27.58;;;;;;;-0.23;72.23;98191.95;1781870;80;21508;-43
2022/01/09 00:44:13;;;;;;;58.95;28.98;;;;;;;-0.32;72.09;98186.60;1781343;80;21034;-45
2022/01/09 00:46:38;;;;;;;69.00;28.27;;;;;;;-0.27;71.62;98191.65;1781801;80;20987;-43
2022/01/09 00:49:05;;;;;;;61.65;27.22;;;;;;;-0.28;71.62;98180.45;1774532;80;21055;-42
2022/01/09 00:51:31;;;;;;;64.55;28.47;;;;;;;-0.33;71.76;98176.31;1773583;81;21003;-43
2022/01/09 00:53:57;;;;;;;67.00;27.37;;;;;;;-0.37;71.80;98172.13;1773683;81;21031;-45
2022/01/09 00:56:23;;;;;;;65.87;28.60;;;;;;;-0.36;71.67;98159.59;1773651;81;21524;-47
2022/01/09 00:58:49;;;;;;;65.17;28.50;;;;;;;-0.39;71.83;98158.80;1773642;81;21465;-44
2022/01/09 01:01:14;;;;;;;64.17;29.37;;;;;;;-0.43;71.88;98153.78;1773619;80;20987;-45
2022/01/09 01:03:40;;;;;;;66.85;29.35;;;;;;;-0.44;71.66;98154.23;1773600;80;20988;-43
2022/01/09 01:06:06;;;;;;;62.80;28.20;;;;;;;-0.47;71.95;98154.32;1773585;81;21000;-47
2022/01/09 01:08:32;;;;;;;72.55;30.90;;;;;;;-0.49;71.89;98154.81;1773627;80;20988;-45
2022/01/09 01:10:58;;;;;;;68.15;30.20;;;;;;;-0.50;72.25;98145.81;1773632;80;20959;-44
2022/01/09 01:13:24;;;;;;;71.53;31.48;;;;;;;-0.52;71.89;98138.11;1773772;81;21172;-48
2022/01/09 01:15:50;;;;;;;65.00;29.98;;;;;;;-0.54;71.72;98133.44;1773614;81;21457;-41
2022/01/09 01:18:15;;;;;;;73.97;32.75;;;;;;;-0.56;71.79;98126.18;1773639;81;21493;-45
2022/01/09 01:20:41;;;;;;;69.82;30.30;;;;;;;-0.62;71.90;98121.17;1773664;81;21496;-44
2022/01/09 01:23:07;;;;;;;64.92;30.68;;;;;;;-0.69;71.97;98111.91;1773669;81;21132;-46
2022/01/09 01:25:34;;;;;;;72.65;31.00;;;;;;;-0.63;71.75;98111.30;1773647;81;21066;-44
2022/01/09 01:28:00;;;;;;;65.67;30.05;;;;;;;-0.67;71.69;98109.70;1773892;81;20995;-44
2022/01/09 01:30:26;;;;;;;75.40;31.45;;;;;;;-0.69;71.83;98108.91;1773816;81;21035;-43
2022/01/09 01:32:52;;;;;;;69.40;30.15;;;;;;;-0.72;71.82;98110.73;1773767;80;20996;-45
2022/01/09 01:35:19;;;;;;;65.03;29.70;;;;;;;-0.75;72.08;98106.94;1773826;81;21509;-46
2022/01/09 01:37:45;;;;;;;62.85;30.52;;;;;;;-0.80;72.18;98100.18;1773966;81;21042;-46
2022/01/09 01:40:15;;;;;;;64.22;30.00;;;;;;;-0.77;72.26;98099.23;1749977;81;20964;-43
2022/01/09 01:42:42;;;;;;;66.22;30.88;;;;;;;-0.84;72.01;98095.13;1773748;80;20995;-43
2022/01/09 01:45:09;;;;;;;65.97;29.92;;;;;;;-0.83;72.12;98095.09;1773885;81;20987;-45
2022/01/09 01:47:35;;;;;;;68.97;29.80;;;;;;;-0.85;72.06;98089.13;1773727;81;21027;-45
2022/01/09 01:50:03;;;;;;;67.60;29.70;;;;;;;-0.81;72.00;98084.27;1773742;81;21000;-43
2022/01/09 01:52:34;;;;;;;;;;;;;;;-0.83;72.10;98074.45;1776403;81;21003;-44
2022/01/09 01:54:56;;;;;;;72.27;31.15;;;;;;;-0.88;72.31;98079.34;1772788;81;20113;-45
2022/01/09 01:57:23;;;;;;;67.40;30.50;;;;;;;-0.86;72.04;98073.23;1773709;81;20992;-45
2022/01/09 01:59:49;;;;;;;72.22;31.82;;;;;;;-0.88;72.30;98071.14;1773989;81;21442;-45
2022/01/09 02:02:15;;;;;;;73.15;30.30;;;;;;;-0.87;71.97;98066.40;1773668;81;20988;-47
2022/01/09 02:04:40;;;;;;;67.05;29.95;;;;;;;-0.87;71.98;98065.56;1773801;81;20956;-45
2022/01/09 02:07:08;;;;;;;70.80;29.85;;;;;;;-0.88;72.31;98062.11;1773697;81;21019;-45
2022/01/09 02:09:34;;;;;;;68.02;30.77;;;;;;;-0.86;71.81;98066.78;1773850;81;20987;-47
2022/01/09 02:12:00;;;;;;;73.50;29.40;;;;;;;-0.94;71.66;98061.01;1773690;81;21023;-46
2022/01/09 02:14:26;;;;;;;71.20;29.95;;;;;;;-0.90;71.61;98060.02;1773720;80;20992;-45
2022/01/09 02:16:52;;;;;;;73.97;30.52;;;;;;;-0.91;71.54;98057.06;1773670;81;20979;-46
2022/01/09 02:19:21;;;;;;;74.53;30.77;;;;;;;-0.97;71.75;98062.38;1773649;81;21446;-44
2022/01/09 02:21:47;;;;;;;71.50;30.82;;;;;;;-0.95;71.71;98055.89;1773690;80;20964;-45
2022/01/09 02:24:14;;;;;;;72.75;31.45;;;;;;;-0.95;71.91;98048.98;1773705;81;20980;-45
2022/01/09 02:26:40;;;;;;;74.30;31.90;;;;;;;-0.97;71.67;98052.05;1773906;81;21038;-47
2022/01/09 02:29:07;;;;;;;68.47;31.13;;;;;;;-0.96;71.71;98052.47;1773982;81;21003;-42
2022/01/09 02:31:35;;;;;;;73.70;30.85;;;;;;;-0.98;71.66;98061.54;1773956;80;21065;-43
2022/01/09 02:34:01;;;;;;;77.95;30.88;;;;;;;-0.99;71.85;98062.88;1773685;81;21455;-44
2022/01/09 02:36:27;;;;;;;70.25;31.87;;;;;;;-1.02;71.71;98062.95;1773724;81;20991;-46
2022/01/09 02:38:52;;;;;;;80.65;31.95;;;;;;;-1.10;71.63;98058.47;1773685;80;20995;-44
2022/01/09 02:43:26;;;;;;;73.12;30.68;;;;;;;-1.08;72.08;98048.94;1800239;79;22876;-46
2022/01/09 02:46:02;;;;;;;68.52;30.88;;;;;;;-1.12;72.03;98043.48;1761582;80;21075;-45
2022/01/09 02:48:21;;;;;;;70.15;30.70;;;;;;;-1.19;72.07;98044.92;1760402;80;20991;-47
2022/01/09 02:51:08;;;;;;;75.97;32.10;;;;;;;-1.24;72.17;98035.62;1761889;80;21483;-42
2022/01/09 02:53:33;;;;;;;71.35;30.32;;;;;;;-1.24;72.27;98035.17;1761057;81;20991;-45
2022/01/09 02:55:56;;;;;;;;;;;;;;;-1.25;72.14;98031.37;1763991;80;21419;-44
2022/01/09 02:58:22;;;;;;;73.80;31.10;;;;;;;-1.34;72.36;98026.02;1761800;81;20128;-43
2022/01/09 03:00:48;;;;;;;70.30;31.12;;;;;;;-1.36;72.42;98018.77;1761753;81;21027;-45
2022/01/09 03:03:14;;;;;;;73.67;30.72;;;;;;;-1.43;72.74;98015.95;1761878;81;20988;-43
2022/01/09 03:05:40;;;;;;;74.65;31.50;;;;;;;-1.44;72.75;98012.50;1761870;80;21034;-43
2022/01/09 03:08:08;;;;;;;74.22;32.98;;;;;;;-1.45;72.72;98013.86;1761781;81;20998;-42
2022/01/09 03:10:34;;;;;;;65.52;30.48;;;;;;;-1.46;72.82;98009.58;1761767;80;20987;-43
2022/01/09 03:13:00;;;;;;;75.00;32.38;;;;;;;-1.46;72.76;98012.16;1761843;81;21541;-43
2022/01/09 03:15:27;;;;;;;71.22;32.08;;;;;;;-1.51;72.80;98011.44;1761792;81;21515;-45
2022/01/09 03:17:53;;;;;;;74.83;32.83;;;;;;;-1.51;73.10;98001.12;1762088;81;20991;-45
2022/01/09 03:20:24;;;;;;;74.85;31.97;;;;;;;-1.48;73.16;98002.34;1761781;80;20986;-44
2022/01/09 03:22:50;;;;;;;73.57;30.45;;;;;;;-1.47;73.11;98002.75;1761760;81;21011;-43
2022/01/09 03:25:16;;;;;;;64.05;30.88;;;;;;;-1.51;72.76;98006.28;1761728;81;21050;-43
2022/01/09 03:27:52;;;;;;;72.62;30.50;;;;;;;-1.51;72.95;97997.25;1761823;81;21488;-45
2022/01/09 03:30:16;;;;;;;66.77;29.90;;;;;;;-1.54;72.82;97995.62;1760075;81;20947;-45
2022/01/09 03:32:43;;;;;;;72.67;30.27;;;;;;;-1.55;72.65;97996.49;1761935;81;21014;-44
2022/01/09 03:35:14;;;;;;;73.52;30.40;;;;;;;-1.59;72.70;97995.73;1761904;81;20995;-43
2022/01/09 03:37:42;;;;;;;70.72;29.67;;;;;;;-1.55;72.86;97996.07;1761765;80;20963;-44
2022/01/09 03:40:13;;;;;;;65.87;30.05;;;;;;;-1.60;72.64;97995.77;1761791;81;20991;-45
2022/01/09 03:42:39;;;;;;;64.42;31.00;;;;;;;-1.59;72.69;97997.02;1761780;81;21049;-46
2022/01/09 03:45:07;;;;;;;72.65;30.43;;;;;;;-1.62;72.90;97996.25;1762014;81;21035;-42
2022/01/09 03:47:35;;;;;;;70.03;31.02;;;;;;;-1.63;73.02;97986.84;1762002;81;20983;-46
2022/01/09 03:50:04;;;;;;;71.75;31.30;;;;;;;-1.64;72.94;97981.28;1762159;81;20968;-46
2022/01/09 03:52:30;;;;;;;66.87;29.82;;;;;;;-1.70;72.97;97981.00;1761938;81;20994;-45
2022/01/09 03:54:55;;;;;;;59.25;28.55;;;;;;;-1.71;73.35;97980.62;1761448;80;21159;-48
2022/01/09 03:57:22;;;;;;;69.22;28.57;;;;;;;-1.71;72.93;97975.46;1761453;81;20990;-45
2022/01/09 03:59:48;;;;;;;65.90;29.77;;;;;;;-1.75;73.00;97977.28;1761599;81;20972;-45
2022/01/09 04:02:14;;;;;;;71.50;31.00;;;;;;;-1.78;73.18;97973.48;1761486;81;20979;-45
2022/01/09 04:04:40;;;;;;;67.95;29.45;;;;;;;-1.79;73.04;97969.66;1761456;81;21441;-43
2022/01/09 04:07:06;;;;;;;67.90;30.68;;;;;;;-1.79;73.16;97973.06;1761432;81;20975;-47
2022/01/09 04:09:40;;;;;;;67.85;29.52;;;;;;;-1.81;73.27;97966.28;1761540;81;21480;-43
2022/01/09 04:12:17;;;;;;;69.32;30.77;;;;;;;-1.75;72.92;97973.83;1761534;81;21003;-45
2022/01/09 04:14:47;;;;;;;67.90;29.63;;;;;;;-1.82;73.15;97962.00;1745239;81;21022;-45
2022/01/09 04:17:35;;;;;;;73.28;30.40;;;;;;;-1.82;73.31;97962.00;1760668;81;20999;-47
2022/01/09 04:19:48;;;;;;;65.28;29.80;;;;;;;-1.82;73.13;97963.28;1758526;81;20979;-46
2022/01/09 04:22:14;;;;;;;65.42;28.70;;;;;;;-1.83;73.41;97968.05;1761422;81;21094;-48
2022/01/09 04:24:40;;;;;;;64.17;30.72;;;;;;;-1.82;73.10;97969.30;1761426;81;21522;-45
2022/01/09 04:27:06;;;;;;;68.92;29.15;;;;;;;-1.86;73.18;97966.38;1761457;81;20980;-46
2022/01/09 04:29:32;;;;;;;63.87;29.20;;;;;;;-1.88;73.12;97959.14;1761439;81;21500;-44
2022/01/09 04:31:57;;;;;;;77.78;32.63;;;;;;;-1.87;73.12;97967.71;1761390;80;20991;-43
2022/01/09 04:34:23;;;;;;;65.80;28.40;;;;;;;-1.95;73.29;97961.48;1761702;81;21030;-42
2022/01/09 04:36:50;;;;;;;62.58;28.25;;;;;;;-1.96;73.43;97954.20;1761425;81;20996;-42
2022/01/09 04:39:16;;;;;;;67.90;31.23;;;;;;;-1.95;73.46;97953.75;1761774;80;21615;-42
2022/01/09 04:41:41;;;;;;;70.83;29.37;;;;;;;-1.94;73.40;97952.42;1761386;81;20983;-43
2022/01/09 04:44:07;;;;;;;62.20;28.60;;;;;;;-1.92;73.23;97952.39;1761455;81;20995;-43
2022/01/09 04:46:42;;;;;;;63.98;28.45;;;;;;;-2.01;73.76;97953.92;1761401;81;20995;-45
2022/01/09 04:49:00;;;;;;;;;;;;;;;-1.96;73.48;97941.31;1763015;81;20971;-47
2022/01/09 04:51:26;;;;;;;61.58;28.42;;;;;;;-1.98;73.49;97931.50;1761524;81;20412;-43
2022/01/09 04:53:52;;;;;;;64.87;29.98;;;;;;;-2.00;73.50;97930.70;1761407;81;20983;-44
2022/01/09 04:56:18;;;;;;;63.25;28.50;;;;;;;-1.94;73.40;97926.66;1761496;81;20955;-44
2022/01/09 04:58:43;;;;;;;70.40;29.55;;;;;;;-1.92;73.37;97927.08;1761418;81;21472;-43
2022/01/09 05:01:09;;;;;;;62.35;28.35;;;;;;;-1.92;73.09;97927.08;1761382;81;21514;-46
2022/01/09 05:03:35;;;;;;;64.12;27.70;;;;;;;-1.90;73.28;97925.30;1761486;81;21441;-47
2022/01/09 05:06:01;;;;;;;67.53;28.23;;;;;;;-2.03;73.15;97921.75;1761452;81;21480;-43
2022/01/09 05:08:26;;;;;;;58.68;27.75;;;;;;;-1.97;73.08;97913.02;1761467;81;20963;-49
2022/01/09 05:10:52;;;;;;;56.77;26.95;;;;;;;-1.96;73.25;97922.00;1761429;80;21527;-47
2022/01/09 05:13:18;;;;;;;67.65;28.92;;;;;;;-2.01;73.33;97918.69;1761431;81;21030;-47
2022/01/09 05:15:44;;;;;;;57.05;28.42;;;;;;;-2.02;73.59;97914.86;1761464;81;20979;-44
2022/01/09 05:18:14;;;;;;;64.30;28.70;;;;;;;-2.05;73.57;97913.67;1761390;81;21014;-43
2022/01/09 05:20:37;;;;;;;;;;;;;;;-2.00;73.21;97911.80;1763642;81;20984;-45
2022/01/09 05:23:03;;;;;;;58.42;28.07;;;;;;;-2.05;73.51;97911.94;1761487;81;20432;-46
2022/01/09 05:25:29;;;;;;;64.32;29.12;;;;;;;-2.06;73.62;97919.70;1761376;81;20967;-43
2022/01/09 05:27:55;;;;;;;61.08;28.75;;;;;;;-2.08;73.55;97911.17;1761408;81;21029;-45
2022/01/09 05:30:20;;;;;;;63.70;29.07;;;;;;;-2.12;73.72;97907.83;1761342;81;20971;-46
2022/01/09 05:32:46;;;;;;;65.40;28.62;;;;;;;-2.03;73.58;97910.61;1761388;81;21104;-47
2022/01/09 05:35:12;;;;;;;67.82;29.77;;;;;;;-2.03;73.58;97910.61;1761459;81;20984;-42
2022/01/09 05:37:38;;;;;;;57.00;29.80;;;;;;;-2.02;73.71;97918.30;1761361;80;20990;-43
2022/01/09 05:40:05;;;;;;;63.92;30.10;;;;;;;-1.99;73.84;97922.52;1761401;80;20982;-44
2022/01/09 05:42:31;;;;;;;74.25;31.70;;;;;;;-1.97;73.75;97916.42;1761384;81;21055;-43
2022/01/09 05:44:57;;;;;;;72.30;31.65;;;;;;;-2.01;73.53;97922.55;1761354;81;21025;-42
2022/01/09 05:47:22;;;;;;;71.12;32.03;;;;;;;-1.98;73.66;97919.91;1761371;81;21067;-44
2022/01/09 05:49:48;;;;;;;69.80;30.65;;;;;;;-1.98;73.47;97922.48;1761463;81;20995;-45
2022/01/09 05:52:14;;;;;;;75.42;30.80;;;;;;;-1.99;73.51;97931.08;1761375;81;20991;-47
2022/01/09 05:54:40;;;;;;;71.15;30.92;;;;;;;-1.99;73.35;97934.11;1761366;81;21030;-42
2022/01/09 05:57:06;;;;;;;65.70;30.37;;;;;;;-1.97;73.39;97938.33;1761514;81;20956;-43
2022/01/09 05:59:32;;;;;;;65.03;30.75;;;;;;;-2.01;73.30;97931.57;1761298;81;21843;-43
2022/01/09 06:01:58;;;;;;;62.20;30.20;;;;;;;-1.97;73.38;97940.06;1761354;80;20983;-45
2022/01/09 06:04:25;;;;;;;69.92;30.82;;;;;;;-1.96;73.52;97934.05;1761474;81;21480;-46
2022/01/09 06:06:50;;;;;;;68.20;31.52;;;;;;;-1.99;73.33;97938.81;1761496;81;20987;-47
2022/01/09 06:09:16;;;;;;;65.87;29.37;;;;;;;-2.04;73.43;97939.38;1761371;81;20967;-50
2022/01/09 06:11:42;;;;;;;67.97;30.43;;;;;;;-2.03;73.56;97939.78;1761337;81;20991;-48
2022/01/09 06:14:08;;;;;;;72.92;30.48;;;;;;;-2.02;73.51;97940.20;1761313;81;20993;-45
2022/01/09 06:16:34;;;;;;;76.07;32.75;;;;;;;-2.01;73.42;97946.19;1761362;81;20983;-47
2022/01/09 06:18:59;;;;;;;71.35;31.90;;;;;;;-1.96;73.45;97950.33;1761335;81;21067;-46
2022/01/09 06:21:30;;;;;;;74.22;32.70;;;;;;;-1.91;73.45;97951.94;1761339;81;20971;-46
2022/01/09 06:23:54;;;;;;;69.62;31.02;;;;;;;-1.88;73.22;97949.29;1759894;81;20955;-42
2022/01/09 06:26:20;;;;;;;70.85;29.50;;;;;;;-1.83;73.10;97950.02;1761639;81;21039;-44
2022/01/09 06:28:45;;;;;;;68.02;29.98;;;;;;;-1.79;73.01;97954.19;1761274;81;20995;-42
2022/01/09 06:31:11;;;;;;;75.87;31.12;;;;;;;-1.68;72.74;97956.03;1761357;81;20995;-43
2022/01/09 06:33:37;;;;;;;64.80;31.02;;;;;;;-1.68;72.74;97956.03;1761348;80;20979;-46
2022/01/09 06:36:04;;;;;;;71.10;31.52;;;;;;;-1.68;72.56;97959.89;1761522;81;21015;-44
2022/01/09 06:38:30;;;;;;;66.70;32.50;;;;;;;-1.68;72.41;97959.89;1761613;80;20971;-41
2022/01/09 06:40:56;;;;;;;65.00;31.30;;;;;;;-1.78;72.11;97959.31;1761367;81;21035;-43
2022/01/09 06:43:21;;;;;;;68.30;31.90;;;;;;;-1.78;72.32;97964.47;1754360;80;20993;-42
2022/01/09 06:45:47;;;;;;;76.47;31.33;;;;;;;-1.81;72.53;97966.28;1748065;81;21071;-44
2022/01/09 06:48:13;;;;;;;73.92;32.67;;;;;;;-1.80;72.49;97971.39;1747969;82;20991;-41
2022/01/09 06:50:39;;;;;;;76.47;32.35;;;;;;;-1.94;72.56;97971.75;1748023;81;21003;-44
2022/01/09 06:53:04;;;;;;;77.12;33.25;;;;;;;-2.01;72.69;97975.36;1748005;81;21030;-43
2022/01/09 06:55:30;;;;;;;75.92;33.40;;;;;;;-1.94;72.68;97970.45;1748013;81;20987;-42
2022/01/09 06:57:56;;;;;;;73.90;33.42;;;;;;;-2.03;72.95;97981.00;1747959;81;20991;-45
2022/01/09 07:00:22;;;;;;;79.30;33.80;;;;;;;-2.07;72.75;97985.84;1748174;81;21541;-45
2022/01/09 07:02:48;;;;;;;72.03;31.35;;;;;;;-2.05;72.80;97988.37;1747965;81;21460;-44
2022/01/09 07:05:15;;;;;;;71.00;31.55;;;;;;;-2.05;72.86;97985.35;1737583;82;21500;-46
2022/01/09 07:07:42;;;;;;;68.10;30.23;;;;;;;-2.07;72.84;97988.41;1748231;81;20993;-44
2022/01/09 07:10:09;;;;;;;71.07;32.33;;;;;;;-2.04;72.85;97979.30;1748285;81;21034;-44
2022/01/09 07:12:36;;;;;;;68.45;32.28;;;;;;;-2.10;72.96;97994.92;1748081;81;20983;-43
2022/01/09 07:15:03;;;;;;;70.33;33.70;;;;;;;-2.08;72.77;97991.86;1748380;82;20995;-43
2022/01/09 07:17:29;;;;;;;;;;;;;;;-2.03;73.01;97982.30;1750600;82;21492;-42
2022/01/09 07:19:54;;;;;;;72.15;33.53;;;;;;;-2.05;73.06;97988.37;1748036;81;20161;-43
2022/01/09 07:22:20;;;;;;;67.92;32.15;;;;;;;-2.06;72.77;97990.09;1748112;81;20996;-43
2022/01/09 07:24:46;;;;;;;77.00;34.88;;;;;;;-2.05;72.88;97991.80;1748082;81;21469;-49
2022/01/09 07:27:12;;;;;;;71.87;32.40;;;;;;;-2.04;72.99;97984.45;1748038;81;21552;-42
2022/01/09 07:29:38;;;;;;;73.35;34.33;;;;;;;-2.06;73.13;97992.66;1748175;81;20992;-42
2022/01/09 07:32:05;;;;;;;69.27;33.33;;;;;;;-2.02;73.02;97993.43;1748149;81;21023;-44
2022/01/09 07:34:30;;;;;;;76.55;34.35;;;;;;;-2.06;72.99;97978.50;1748236;81;21023;-42
2022/01/09 07:36:56;;;;;;;69.90;32.95;;;;;;;-2.07;72.97;97974.25;1748109;81;21027;-42
2022/01/09 07:39:22;;;;;;;68.25;32.03;;;;;;;-2.08;73.19;97971.25;1748195;81;20992;-46
2022/01/09 07:41:48;;;;;;;64.77;30.68;;;;;;;-2.14;73.40;97974.83;1748066;81;21031;-45
2022/01/09 07:44:14;;;;;;;74.35;32.85;;;;;;;-2.01;73.43;97970.21;1748107;80;21020;-42
2022/01/09 07:46:40;;;;;;;69.00;31.20;;;;;;;-1.92;73.44;97959.28;1748206;81;21512;-44
2022/01/09 07:49:06;;;;;;;68.00;31.40;;;;;;;-1.89;73.24;97965.62;1748129;82;21019;-43
2022/01/09 07:51:32;;;;;;;79.82;33.78;;;;;;;-1.83;73.22;97966.77;1748106;81;21034;-45
2022/01/09 07:53:58;;;;;;;76.50;34.23;;;;;;;-1.81;73.09;97954.68;1748107;81;21003;-43
2022/01/09 07:56:23;;;;;;;75.10;34.08;;;;;;;-1.81;73.28;97961.13;1748187;81;20991;-44
2022/01/09 07:58:49;;;;;;;68.28;31.00;;;;;;;-1.71;73.20;97960.00;1748195;81;21043;-47
2022/01/09 08:01:15;;;;;;;68.97;31.60;;;;;;;-1.73;73.26;97959.17;1748160;81;20988;-42
2022/01/09 08:03:40;;;;;;;72.47;32.83;;;;;;;-1.77;73.12;97962.27;1748199;81;20999;-47
2022/01/09 08:06:06;;;;;;;71.42;31.52;;;;;;;-1.70;73.05;97951.81;1748118;81;20996;-46
2022/01/09 08:08:32;;;;;;;77.55;32.73;;;;;;;-1.69;73.13;97960.80;1748104;81;21023;-44
2022/01/09 08:10:58;;;;;;;83.35;36.23;;;;;;;-1.71;73.15;97957.84;1748167;81;20991;-45
2022/01/09 08:13:23;;;;;;;84.47;38.00;;;;;;;-1.56;73.13;97962.14;1748163;81;21484;-47
2022/01/09 08:15:49;;;;;;;79.15;36.00;;;;;;;-1.46;73.06;97956.72;1748165;81;21031;-44
2022/01/09 08:18:15;;;;;;;78.78;36.38;;;;;;;-1.47;72.88;97956.34;1748303;82;21014;-47
2022/01/09 08:20:41;;;;;;;82.45;36.73;;;;;;;-1.37;72.71;97959.88;1748139;81;21479;-47
2022/01/09 08:23:07;;;;;;;79.80;34.80;;;;;;;-1.37;72.37;97960.33;1748115;81;21474;-46
2022/01/09 08:25:33;;;;;;;69.07;32.63;;;;;;;-1.41;72.18;97960.02;1748154;81;21023;-46
2022/01/09 08:27:59;;;;;;;87.62;36.65;;;;;;;-1.28;72.19;97965.22;1748087;81;20960;-47
2022/01/09 08:30:25;;;;;;;82.67;37.08;;;;;;;-1.27;72.12;97969.95;1748121;81;20987;-45
2022/01/09 08:32:54;;;;;;;78.97;36.93;;;;;;;-1.27;72.19;97968.22;1748092;82;20968;-46
2022/01/09 08:35:22;;;;;;;84.85;38.28;;;;;;;-1.27;72.30;97961.77;1748111;81;21007;-49
2022/01/09 08:37:49;;;;;;;82.53;38.53;;;;;;;-1.17;72.44;97959.30;1748066;81;21441;-45
2022/01/09 08:40:19;;;;;;;85.40;39.58;;;;;;;-1.12;72.11;97959.17;1748086;81;20987;-45
2022/01/09 08:42:47;;;;;;;99.92;42.13;;;;;;;-1.03;72.13;97964.52;1747998;81;20960;-45
2022/01/09 08:45:14;;;;;;;;;;;;;;;-0.99;72.17;97961.78;1750799;81;21034;-43
2022/01/09 08:47:39;;;;;;;112.07;48.30;;;;;;;-0.99;71.88;97971.27;1748566;81;20125;-46
2022/01/09 08:50:07;;;;;;;98.03;39.67;;;;;;;-0.91;71.85;97968.02;1748217;81;21226;-44
2022/01/09 08:52:33;;;;;;;100.78;42.35;;;;;;;-0.85;71.80;97974.28;1748141;81;21039;-44
2022/01/09 08:54:59;;;;;;;75.45;35.63;;;;;;;-0.77;71.68;97980.03;1748081;81;20968;-48
2022/01/09 08:57:25;;;;;;;74.97;35.15;;;;;;;-0.69;71.40;97970.79;1748161;81;21023;-48
2022/01/09 08:59:53;;;;;;;77.67;34.80;;;;;;;-0.56;71.13;97976.84;1748113;82;21563;-46
2022/01/09 09:02:19;;;;;;;80.47;37.60;;;;;;;-0.40;70.72;97982.78;1748205;81;20988;-45
2022/01/09 09:04:45;;;;;;;82.20;36.20;;;;;;;-0.23;69.97;97981.39;1748047;82;20996;-44
2022/01/09 09:07:11;;;;;;;80.62;36.75;;;;;;;0.03;69.39;97971.92;1748094;81;20976;-44
2022/01/09 09:09:37;;;;;;;81.25;37.45;;;;;;;0.23;69.24;97969.48;1748106;82;21520;-45
2022/01/09 09:12:04;;;;;;;74.42;35.30;;;;;;;0.33;68.16;97970.03;1748258;81;21031;-44
2022/01/09 09:14:31;;;;;;;75.45;34.50;;;;;;;0.38;68.03;97974.14;1748200;81;21031;-44
2022/01/09 09:16:57;;;;;;;75.97;37.20;;;;;;;0.36;68.13;97970.77;1748027;81;20987;-43
2022/01/09 09:19:23;;;;;;;80.15;38.17;;;;;;;0.36;68.21;97963.01;1748130;81;20995;-47
2022/01/09 09:21:49;;;;;;;90.77;40.23;;;;;;;0.38;68.58;97963.80;1748118;81;21505;-45
2022/01/09 09:24:15;;;;;;;86.92;42.93;;;;;;;0.37;68.33;97958.67;1748094;81;20999;-44
2022/01/09 09:26:42;;;;;;;87.70;38.30;;;;;;;0.34;68.35;97955.73;1748041;81;20968;-49
2022/01/09 09:29:07;;;;;;;78.28;37.85;;;;;;;0.34;68.39;97951.02;1748034;81;21031;-46
2022/01/09 09:31:34;;;;;;;87.85;39.95;;;;;;;0.38;68.67;97950.00;1748068;81;20999;-45
2022/01/09 09:34:00;;;;;;;86.87;38.45;;;;;;;0.43;68.94;97947.27;1748021;81;21132;-46
2022/01/09 09:36:26;;;;;;;81.87;37.65;;;;;;;0.42;68.59;97950.73;1748085;81;21571;-45
2022/01/09 09:38:52;;;;;;;84.55;39.30;;;;;;;0.46;68.93;97944.12;1748106;82;20999;-47
2022/01/09 09:41:23;;;;;;;83.33;37.70;;;;;;;0.49;68.83;97941.42;1747965;81;20994;-46
2022/01/09 09:43:50;;;;;;;88.67;41.90;;;;;;;0.55;68.96;97942.48;1747990;81;20996;-44
2022/01/09 09:46:16;;;;;;;85.00;39.33;;;;;;;0.58;68.58;97949.28;1748078;81;21485;-45
2022/01/09 09:48:42;;;;;;;86.17;40.55;;;;;;;0.58;68.43;97942.81;1747964;82;21020;-47
2022/01/09 09:51:08;;;;;;;100.60;44.77;;;;;;;0.57;68.36;97943.73;1747988;82;21038;-43
2022/01/09 09:53:34;;;;;;;86.37;38.70;;;;;;;0.63;68.60;97942.66;1747992;82;21060;-45
2022/01/09 09:56:00;;;;;;;80.65;35.68;;;;;;;0.60;68.06;97939.75;1748012;82;21009;-43
2022/01/09 09:58:27;;;;;;;90.17;39.42;;;;;;;0.67;68.39;97942.93;1748018;81;20988;-47
2022/01/09 10:00:54;;;;;;;91.12;42.20;;;;;;;0.66;68.39;97933.04;1748102;81;21034;-45
2022/01/09 10:03:31;;;;;;;103.00;43.87;;;;;;;0.69;68.29;97930.34;1747995;81;20983;-45
2022/01/09 10:05:58;;;;;;;90.77;41.00;;;;;;;0.73;68.38;97931.91;1748145;82;20968;-47
2022/01/09 10:08:37;;;;;;;91.70;39.85;;;;;;;0.78;68.28;97930.89;1748319;82;20987;-50
2022/01/09 10:11:18;;;;;;;86.15;40.73;;;;;;;0.80;68.49;97922.19;1747242;81;21031;-45
2022/01/09 10:13:45;;;;;;;98.75;42.67;;;;;;;0.83;68.40;97923.80;1747978;81;21519;-44
2022/01/09 10:16:13;;;;;;;90.20;39.70;;;;;;;0.86;68.20;97920.65;1748288;81;20991;-44
2022/01/09 10:18:53;;;;;;;96.78;42.05;;;;;;;0.85;67.95;97921.53;1748015;82;21559;-46
2022/01/09 10:21:20;;;;;;;92.65;39.42;;;;;;;0.90;67.75;97918.78;1746811;81;21493;-47
2022/01/09 10:24:08;;;;;;;87.08;39.53;;;;;;;0.93;67.89;97918.68;1747289;81;20948;-43
2022/01/09 10:26:41;;;;;;;76.42;35.45;;;;;;;0.93;67.82;97913.50;1747995;81;20964;-45
2022/01/09 10:29:08;;;;;;;70.72;33.53;;;;;;;1.00;67.84;97917.55;1737482;82;20999;-44
2022/01/09 10:31:46;;;;;;;70.03;36.42;;;;;;;1.06;67.99;97908.69;1748152;82;21504;-44
2022/01/09 10:34:15;;;;;;;69.97;34.70;;;;;;;1.06;67.48;97903.05;1748140;82;21474;-44
2022/01/09 10:36:44;;;;;;;71.25;33.13;;;;;;;1.09;67.38;97902.94;1737556;82;20972;-45
2022/01/09 10:39:14;;;;;;;71.87;35.05;;;;;;;1.06;67.14;97893.99;1747992;81;21674;-43
2022/01/09 10:41:51;;;;;;;60.10;32.13;;;;;;;1.13;67.69;97901.08;1747191;81;20984;-45
2022/01/09 10:44:20;;;;;;;66.02;32.38;;;;;;;1.12;67.04;97897.63;1753976;81;20992;-46
2022/01/09 10:47:03;;;;;;;67.97;32.08;;;;;;;1.20;66.89;97895.19;1744385;81;21014;-43
2022/01/09 10:49:49;;;;;;;70.42;32.30;;;;;;;1.17;66.63;97898.75;1761354;81;20998;-45
2022/01/09 10:52:26;;;;;;;74.22;36.38;;;;;;;1.23;66.98;97884.25;1761571;81;21474;-45
2022/01/09 10:54:56;;;;;;;64.92;32.65;;;;;;;1.26;66.80;97887.19;1761505;80;20999;-47
2022/01/09 10:57:25;;;;;;;59.63;30.90;;;;;;;1.30;66.75;97884.39;1761443;81;21131;-47
2022/01/09 10:59:52;;;;;;;66.20;31.68;;;;;;;1.34;66.68;97881.23;1761436;81;21030;-48
2022/01/09 11:02:20;;;;;;;64.72;32.33;;;;;;;1.34;66.60;97882.52;1761430;81;20979;-49
2022/01/09 11:04:48;;;;;;;62.13;30.60;;;;;;;1.35;66.29;97871.27;1761506;81;20967;-44
2022/01/09 11:07:15;;;;;;;64.15;31.17;;;;;;;1.36;66.20;97869.05;1761489;80;21488;-45
2022/01/09 11:09:49;;;;;;;69.58;31.37;;;;;;;1.38;66.19;97862.06;1761495;81;21003;-43
2022/01/09 11:12:19;;;;;;;65.50;30.82;;;;;;;1.45;66.43;97864.79;1761350;81;20998;-45
2022/01/09 11:14:45;;;;;;;64.77;32.58;;;;;;;1.50;66.56;97864.62;1761448;81;21027;-45
2022/01/09 11:17:11;;;;;;;64.72;32.17;;;;;;;1.53;66.39;97870.97;1761620;81;20999;-45
2022/01/09 11:19:38;;;;;;;67.42;32.85;;;;;;;1.54;65.89;97868.75;1761484;81;20963;-43
2022/01/09 11:22:10;;;;;;;69.77;31.67;;;;;;;1.54;65.81;97864.88;1761717;81;20984;-47